Pagrindinis puslapis
METAR-TAF:

METAR-TAF

Oro uostai :

Tarantas, Italija

platuma: 40-31N, ilguma: 017-24E, Aukštis: 64 m

Dabartinis oras

Ataskaita buvo paskelbta 22 minutes, ne 11:50 UTC
Vėjas 5 kt iš Vakarų
Temperatūra 26°C
Drėgmė 51%
Slėgis 1016 hPa
Matomumas 10 km arba daugiau
Mažai debesys ne aukštis 2500 ft

METAR: LIBG 161150Z 26005KT 9999 FEW025 26/15 Q1016

Laikas: 14:12 (12:12 UTC)

Prognozė

Ataskaita buvo paskelbta 1 valandą ir 12 minutes, ne 11:00 UTC
Prognozė galioja nuo 16 metu 12 UTC su 16 metu 21 UTC
Vėjas 5 kt nuo kintamojo kryptimis
Matomumas 10 km arba daugiau
Mažai debesys ne aukštis 4000 ft

TAF: LIBG 161100Z 1612/1621 VRB05KT 9999 FEW040

Orai ataskaitas ir orų prognozės (METAR, TAF).

turimą stotys yra geltonos ir raudonos taškus žemėlapyje.

Perkelti pele per norėdami pamatyti stoties vardą.

Tada spustelėkite, norėdami matyti oro stebėjimo ir prognozės.

Norėdami pakeisti žemėlapį: spustelėkite ant žalios mygtukų su juodo kryžiaus žemyn,; žalią mygtuką su brūkšneliu, jei norite nutolinti; arba žalių rodyklių gretimoms žemėlapius.


METAR-TAF: